Time;durP1;ratioP1;P1;durP2;ratioP2;P2;SDS_P1;SDS_P2;PMS_P1;PMS_P2;Temp;Humidity;BMP_temperature;BMP_pressure;BME280_temperature;BME280_humidity;BME280_pressure;Samples;Min_cycle;Max_cycle;Signal;HPM_P1;HPM_P2
2021/04/14 00:04:13;;;;;;;51.73;32.60;;;;;;;4.10;66.09;99541.52;258147;1119;114673;-70
2021/04/14 00:09:16;;;;;;;48.98;31.28;;;;;;;4.08;65.20;99543.34;258387;1116;114249;-71
2021/04/14 00:14:19;;;;;;;45.03;28.50;;;;;;;4.05;65.05;99534.66;258323;1119;114980;-70
2021/04/14 00:19:23;;;;;;;38.53;25.75;;;;;;;4.03;65.35;99535.55;258361;1116;114417;-68
2021/04/14 00:24:26;;;;;;;34.58;22.68;;;;;;;4.00;65.37;99540.89;258388;1119;114396;-70
2021/04/14 00:29:29;;;;;;;34.03;22.65;;;;;;;3.97;65.12;99530.48;258314;1119;114185;-69
2021/04/14 00:34:32;;;;;;;37.95;24.80;;;;;;;3.94;64.97;99527.92;258443;1117;114220;-70
2021/04/14 00:39:34;;;;;;;35.88;24.30;;;;;;;3.96;65.07;99533.99;258325;1116;114415;-70
2021/04/14 00:44:37;;;;;;;41.08;28.00;;;;;;;3.99;65.33;99527.78;258287;1118;114548;-67
2021/04/14 00:49:39;;;;;;;40.10;26.33;;;;;;;4.01;65.63;99518.09;258361;1119;114367;-68
2021/04/14 00:54:42;;;;;;;36.13;24.68;;;;;;;4.04;65.64;99515.34;258291;1118;114499;-70
2021/04/14 00:59:45;;;;;;;34.68;23.90;;;;;;;4.02;65.42;99517.17;258359;1118;113971;-71
2021/04/14 01:04:47;;;;;;;35.90;24.80;;;;;;;3.99;65.60;99512.84;258422;1116;114908;-69
2021/04/14 01:09:50;;;;;;;28.30;19.08;;;;;;;3.97;65.36;99514.67;258320;1117;115676;-69
2021/04/14 01:14:53;;;;;;;28.20;18.80;;;;;;;3.94;65.49;99514.76;258323;1117;114307;-69
2021/04/14 01:19:55;;;;;;;28.15;18.58;;;;;;;3.95;65.75;99510.35;258319;1116;114281;-67
2021/04/14 01:24:58;;;;;;;34.28;20.10;;;;;;;3.94;65.48;99520.02;258447;1116;114485;-69
2021/04/14 01:30:07;;;;;;;26.88;17.80;;;;;;;3.92;65.92;99516.55;258304;1118;114590;-69
2021/04/14 01:35:12;;;;;;;25.55;17.00;;;;;;;3.94;65.63;99505.97;258388;1116;114625;-69
2021/04/14 01:40:17;;;;;;;25.07;16.60;;;;;;;3.95;65.63;99499.81;258385;1116;114933;-68
2021/04/14 01:45:25;;;;;;;21.00;15.08;;;;;;;3.95;65.67;99492.78;258395;1116;115050;-74
2021/04/14 01:50:28;;;;;;;22.48;14.55;;;;;;;3.95;65.70;99486.66;258418;1118;114698;-74
2021/04/14 01:55:36;;;;;;;17.23;12.25;;;;;;;3.91;65.59;99485.88;258361;1117;114574;-74
2021/04/14 02:00:49;;;;;;;16.40;11.53;;;;;;;3.88;65.96;99483.33;257174;1118;114739;-77
2021/04/14 02:05:52;;;;;;;21.03;14.58;;;;;;;3.87;66.03;99476.31;258354;1116;115172;-78
2021/04/14 02:10:59;;;;;;;30.55;20.98;;;;;;;3.84;65.95;99471.16;256766;1118;114680;-73
2021/04/14 02:16:04;;;;;;;32.55;21.30;;;;;;;3.88;66.03;99469.30;258496;1117;114547;-73
2021/04/14 02:21:06;;;;;;;29.88;19.78;;;;;;;3.93;66.05;99468.25;258293;1117;114833;-72
2021/04/14 02:26:16;;;;;;;28.33;19.53;;;;;;;3.94;65.73;99464.73;258498;1118;115211;-71
2021/04/14 02:31:30;;;;;;;31.43;20.85;;;;;;;3.93;65.80;99462.13;258194;1118;114842;-79
2021/04/14 02:36:34;;;;;;;27.93;19.60;;;;;;;3.93;66.04;99467.39;258421;1116;114511;-75
2021/04/14 02:41:39;;;;;;;29.25;19.20;;;;;;;3.93;66.22;99460.34;257645;1119;114456;-74
2021/04/14 02:46:44;;;;;;;24.48;17.00;;;;;;;3.90;66.05;99451.67;258335;1117;114942;-73
2021/04/14 02:51:47;;;;;;;23.90;16.18;;;;;;;3.90;66.32;99455.16;258429;1116;114503;-69
2021/04/14 02:56:50;;;;;;;33.90;22.00;;;;;;;3.89;65.96;99449.95;258364;1116;114369;-69
2021/04/14 03:01:53;;;;;;;31.30;21.10;;;;;;;3.90;65.98;99446.41;258310;1117;114815;-67
2021/04/14 03:06:55;;;;;;;28.93;20.25;;;;;;;3.92;65.92;99450.73;258426;1117;114713;-71
2021/04/14 03:11:58;;;;;;;23.13;16.28;;;;;;;3.94;65.55;99450.67;258354;1117;114313;-72
2021/04/14 03:17:02;;;;;;;16.65;12.15;;;;;;;3.94;66.23;99445.41;258480;1119;114522;-74
2021/04/14 03:22:05;;;;;;;17.43;12.20;;;;;;;3.92;66.15;99447.23;258384;1116;114916;-72
2021/04/14 03:27:08;;;;;;;14.93;10.98;;;;;;;3.92;66.21;99445.47;258226;1119;115291;-73
2021/04/14 03:32:11;;;;;;;10.73;8.83;;;;;;;3.91;66.19;99443.75;258358;1117;114346;-73
2021/04/14 03:37:16;;;;;;;10.60;7.13;;;;;;;3.90;66.36;99449.05;258392;1116;114052;-74
2021/04/14 03:42:18;;;;;;;8.05;6.48;;;;;;;3.94;66.28;99451.56;258402;1116;114687;-75
2021/04/14 03:47:30;;;;;;;5.53;4.88;;;;;;;3.99;66.16;99444.38;258357;1118;113786;-76
2021/04/14 03:52:33;;;;;;;6.20;4.70;;;;;;;4.07;66.36;99448.56;257786;1119;114218;-74
2021/04/14 03:57:38;;;;;;;5.70;4.80;;;;;;;4.15;66.33;99449.22;258454;1116;113936;-76
2021/04/14 04:02:40;;;;;;;;;;;;;;;4.14;66.27;99452.73;258387;1118;114813;-70
2021/04/14 04:07:43;;;;;;;5.85;4.18;;;;;;;4.11;66.28;99453.72;258517;1116;101445;-71
2021/04/14 04:12:46;;;;;;;4.75;4.28;;;;;;;4.10;65.99;99459.87;258466;1118;114728;-71
2021/04/14 04:17:48;;;;;;;4.83;4.03;;;;;;;4.09;66.36;99465.19;258401;1117;114090;-72
2021/04/14 04:22:51;;;;;;;5.30;4.58;;;;;;;4.11;66.11;99468.63;258346;1118;114301;-69
2021/04/14 04:27:54;;;;;;;5.85;4.88;;;;;;;4.06;66.09;99463.50;258339;1118;113985;-72
2021/04/14 04:32:58;;;;;;;7.60;5.65;;;;;;;4.02;66.11;99472.41;258388;1118;114623;-70
2021/04/14 04:38:06;;;;;;;5.55;4.95;;;;;;;4.03;66.11;99474.98;258516;1118;114429;-74
2021/04/14 04:43:09;;;;;;;6.18;5.05;;;;;;;4.08;66.79;99474.01;258307;1117;113988;-66
2021/04/14 04:48:15;;;;;;;5.53;4.98;;;;;;;4.15;66.20;99478.19;258424;1117;114182;-71
2021/04/14 04:53:22;;;;;;;8.13;5.55;;;;;;;4.19;66.42;99479.83;258397;1116;114923;-71
2021/04/14 04:58:28;;;;;;;6.03;5.20;;;;;;;4.18;66.42;99478.97;258333;1117;114296;-70
2021/04/14 05:03:32;;;;;;;7.18;5.53;;;;;;;4.19;66.07;99488.58;258368;1116;114101;-71
2021/04/14 05:08:44;;;;;;;6.08;5.03;;;;;;;4.19;66.11;99492.99;258320;1118;114202;-72
2021/04/14 05:13:48;;;;;;;6.20;5.60;;;;;;;4.20;66.29;99502.61;258386;1119;114213;-71
2021/04/14 05:18:51;;;;;;;6.28;4.98;;;;;;;4.22;66.15;99500.81;258350;1118;114780;-72
2021/04/14 05:23:54;;;;;;;6.05;4.75;;;;;;;4.20;66.19;99499.98;258374;1116;114202;-72
2021/04/14 05:28:57;;;;;;;5.65;4.43;;;;;;;4.29;66.47;99502.36;258377;1117;114250;-70
2021/04/14 05:34:00;;;;;;;6.18;4.73;;;;;;;4.35;66.12;99498.66;258260;1117;114444;-69
2021/04/14 05:39:03;;;;;;;6.15;4.75;;;;;;;4.40;66.34;99502.03;258488;1116;114667;-70
2021/04/14 05:44:06;;;;;;;7.20;5.00;;;;;;;4.42;65.99;99501.09;258285;1118;113721;-70
2021/04/14 05:49:09;;;;;;;5.73;4.80;;;;;;;4.41;66.28;99501.98;258451;1118;114911;-68
2021/04/14 05:54:13;;;;;;;5.80;4.50;;;;;;;4.39;66.20;99500.32;258381;1119;114548;-67
2021/04/14 05:59:15;;;;;;;5.58;4.70;;;;;;;4.35;66.07;99501.30;258380;1116;114805;-68
2021/04/14 06:04:18;;;;;;;5.93;5.08;;;;;;;4.33;66.28;99506.63;258396;1116;114228;-68
2021/04/14 06:09:22;;;;;;;6.50;4.65;;;;;;;4.36;66.29;99506.53;258404;1116;113794;-66
2021/04/14 06:14:24;;;;;;;6.58;5.00;;;;;;;4.40;66.51;99512.58;258397;1117;113941;-70
2021/04/14 06:19:27;;;;;;;6.70;4.27;;;;;;;4.45;66.55;99508.91;258422;1117;114955;-68
2021/04/14 06:24:31;;;;;;;5.85;4.70;;;;;;;4.51;66.12;99505.20;258393;1116;115192;-68
2021/04/14 06:29:34;;;;;;;6.55;5.15;;;;;;;4.55;66.46;99503.34;258390;1117;114973;-67
2021/04/14 06:34:37;;;;;;;6.93;5.05;;;;;;;4.58;66.22;99506.75;258327;1118;114430;-69
2021/04/14 06:39:39;;;;;;;6.03;4.48;;;;;;;4.60;66.10;99504.94;258443;1116;114080;-69
2021/04/14 06:45:03;;;;;;;5.48;3.90;;;;;;;4.58;66.11;99505.89;258427;1116;114267;-68
2021/04/14 06:50:18;;;;;;;7.85;4.43;;;;;;;4.57;66.30;99504.17;258489;1116;114281;-67
2021/04/14 06:55:32;;;;;;;5.95;3.60;;;;;;;4.58;66.24;99509.38;258451;1117;113949;-67
2021/04/14 07:00:42;;;;;;;7.90;3.78;;;;;;;4.53;65.66;99505.18;258358;1117;114690;-69
2021/04/14 07:05:49;;;;;;;6.58;4.00;;;;;;;4.49;66.01;99512.31;258413;1116;114229;-70
2021/04/14 07:10:55;;;;;;;5.90;4.35;;;;;;;4.54;65.76;99514.80;258358;1116;114175;-68
2021/04/14 07:16:33;;;;;;;7.13;4.63;;;;;;;4.59;65.65;99508.50;258419;1117;114648;-67
2021/04/14 07:21:42;;;;;;;7.18;4.53;;;;;;;4.62;66.23;99510.16;258439;1116;114254;-70
2021/04/14 07:27:12;;;;;;;7.50;4.88;;;;;;;4.68;66.07;99512.61;258268;1118;113916;-68
2021/04/14 07:32:30;;;;;;;7.43;4.88;;;;;;;4.69;66.02;99515.22;257959;1117;114351;-70
2021/04/14 07:37:44;;;;;;;4.90;3.90;;;;;;;4.79;66.07;99514.91;258333;1117;114080;-71
2021/04/14 07:43:01;;;;;;;5.05;3.73;;;;;;;4.76;65.88;99526.44;258311;1118;114180;-71
2021/04/14 07:48:08;;;;;;;6.50;4.13;;;;;;;4.70;66.10;99516.93;258334;1117;114101;-70
2021/04/14 07:53:21;;;;;;;6.07;4.27;;;;;;;4.68;65.52;99529.28;258268;1117;114047;-70
2021/04/14 07:58:25;;;;;;;4.75;3.10;;;;;;;4.72;66.16;99525.67;258343;1117;114659;-69
2021/04/14 08:03:31;;;;;;;5.73;3.25;;;;;;;4.84;66.20;99528.83;258334;1118;114701;-71
2021/04/14 08:08:33;;;;;;;4.83;3.08;;;;;;;4.88;66.14;99533.95;258401;1118;114313;-71
2021/04/14 08:13:41;;;;;;;4.38;3.03;;;;;;;4.91;66.30;99525.95;257546;1119;114451;-69
2021/04/14 08:18:59;;;;;;;5.28;3.18;;;;;;;4.95;65.95;99521.44;258407;1116;114085;-69
2021/04/14 08:24:14;;;;;;;5.68;3.63;;;;;;;4.92;65.37;99526.81;258410;1118;114190;-72
2021/04/14 08:29:17;;;;;;;4.63;3.33;;;;;;;4.89;66.08;99533.06;258255;1116;114058;-70
2021/04/14 08:34:31;;;;;;;5.30;3.60;;;;;;;4.86;65.54;99535.80;258265;1116;115605;-71
2021/04/14 08:39:34;;;;;;;5.48;3.48;;;;;;;4.84;65.51;99524.42;258378;1118;115183;-70
2021/04/14 08:44:39;;;;;;;5.30;3.20;;;;;;;5.00;66.56;99527.45;258235;1117;114744;-71
2021/04/14 08:55:53;;;;;;;5.58;3.10;;;;;;;5.18;65.97;99526.85;257151;1116;114101;-75
2021/04/14 09:00:58;;;;;;;5.55;3.25;;;;;;;5.18;66.02;99528.63;257328;1121;114272;-75
2021/04/14 09:06:36;;;;;;;5.90;3.30;;;;;;;5.20;65.98;99527.67;257322;1121;114827;-74
2021/04/14 09:12:05;;;;;;;4.85;3.00;;;;;;;5.25;66.18;99518.74;257045;1122;114098;-76
2021/04/14 09:17:18;;;;;;;4.68;2.75;;;;;;;5.28;65.99;99513.38;257192;1121;115216;-73
2021/04/14 09:22:26;;;;;;;4.33;2.45;;;;;;;5.32;66.32;99522.91;257133;1122;118189;-73
2021/04/14 09:27:37;;;;;;;4.15;2.70;;;;;;;5.34;66.03;99515.81;257358;1122;114636;-72
2021/04/14 09:32:46;;;;;;;3.93;2.63;;;;;;;5.47;66.53;99517.13;257165;1121;114230;-73
2021/04/14 09:37:52;;;;;;;3.93;2.70;;;;;;;5.66;66.24;99510.29;257536;1121;113985;-73
2021/04/14 09:42:55;;;;;;;3.53;2.40;;;;;;;5.77;65.56;99515.19;257184;1122;114538;-73
2021/04/14 09:48:01;;;;;;;4.03;2.45;;;;;;;5.88;65.31;99510.42;257518;1123;114119;-72
2021/04/14 09:53:25;;;;;;;3.88;2.40;;;;;;;5.88;65.13;99509.56;257732;1122;114170;-72
2021/04/14 09:58:44;;;;;;;5.05;2.70;;;;;;;5.86;65.79;99508.74;257354;1123;114076;-72
2021/04/14 10:03:48;;;;;;;3.80;2.85;;;;;;;5.90;65.29;99508.56;257297;1122;114463;-72
2021/04/14 10:08:59;;;;;;;4.65;2.35;;;;;;;5.87;65.64;99498.11;257331;1122;114420;-73
2021/04/14 10:14:16;;;;;;;5.35;2.70;;;;;;;5.87;65.44;99497.25;257415;1122;117373;-73
2021/04/14 10:19:31;;;;;;;4.90;2.83;;;;;;;5.86;64.83;99499.03;256638;1122;114432;-74
2021/04/14 10:24:34;;;;;;;6.43;3.15;;;;;;;5.93;65.40;99487.36;257528;1121;114243;-74
2021/04/14 10:29:43;;;;;;;5.13;2.93;;;;;;;6.02;64.97;99488.83;257097;1122;114369;-71
2021/04/14 10:34:47;;;;;;;3.45;2.73;;;;;;;6.08;64.56;99488.61;257459;1122;114685;-72
2021/04/14 10:39:52;;;;;;;5.00;3.65;;;;;;;6.15;64.99;99487.46;257486;1121;115037;-74
2021/04/14 10:45:06;;;;;;;4.53;3.23;;;;;;;6.20;65.10;99486.42;257391;1121;114154;-74
2021/04/14 10:50:25;;;;;;;5.23;3.70;;;;;;;6.13;64.22;99480.50;257314;1122;114585;-72
2021/04/14 10:55:34;;;;;;;5.60;3.90;;;;;;;6.03;64.41;99474.69;257539;1122;114146;-72
2021/04/14 11:00:40;;;;;;;5.60;4.10;;;;;;;6.01;64.38;99484.47;257440;1122;114923;-71
2021/04/14 11:05:51;;;;;;;5.58;3.75;;;;;;;6.03;64.29;99492.33;257525;1121;114110;-73
2021/04/14 11:10:58;;;;;;;5.70;4.00;;;;;;;6.02;64.12;99482.69;257131;1122;114477;-72
2021/04/14 11:16:01;;;;;;;7.33;3.70;;;;;;;6.07;64.41;99481.58;257120;1122;114509;-73
2021/04/14 11:26:18;;;;;;;4.45;3.95;;;;;;;6.23;64.89;99484.53;256935;1122;114119;-72
2021/04/14 11:31:39;;;;;;;7.05;4.80;;;;;;;6.24;64.73;99480.95;256635;1121;114813;-72
2021/04/14 11:36:58;;;;;;;6.68;4.80;;;;;;;6.21;63.60;99477.57;257066;1123;114320;-72
2021/04/14 11:42:05;;;;;;;5.83;4.15;;;;;;;6.20;63.99;99478.50;256935;1123;114239;-72
2021/04/14 11:47:34;;;;;;;5.13;3.93;;;;;;;6.18;64.29;99475.89;256649;1122;114327;-72
2021/04/14 11:52:58;;;;;;;6.58;4.95;;;;;;;6.11;63.35;99477.94;257194;1123;114377;-72
2021/04/14 11:58:04;;;;;;;6.48;4.95;;;;;;;6.09;63.52;99470.97;257136;1123;115484;-72
2021/04/14 12:03:19;;;;;;;7.10;5.40;;;;;;;6.07;63.37;99473.66;257268;1123;113810;-72
2021/04/14 12:08:23;;;;;;;7.15;5.50;;;;;;;6.08;63.60;99471.86;257189;1121;115131;-72
2021/04/14 12:13:28;;;;;;;9.33;5.95;;;;;;;6.08;63.72;99461.30;257058;1123;113690;-72
2021/04/14 12:18:31;;;;;;;6.75;5.73;;;;;;;6.08;63.05;99456.91;257213;1122;114433;-73
2021/04/14 12:23:35;;;;;;;7.48;5.80;;;;;;;6.12;63.26;99455.01;256380;1123;114156;-73
2021/04/14 12:28:38;;;;;;;8.93;6.60;;;;;;;6.26;63.42;99450.06;257127;1122;114531;-72
2021/04/14 12:33:41;;;;;;;8.28;5.83;;;;;;;6.48;63.51;99450.09;257231;1122;114255;-72
2021/04/14 12:38:43;;;;;;;10.93;6.90;;;;;;;6.60;63.26;99456.70;257343;1123;114851;-73
2021/04/14 12:43:46;;;;;;;8.55;6.70;;;;;;;6.63;62.60;99444.21;257158;1122;114768;-72
2021/04/14 12:48:50;;;;;;;8.08;6.58;;;;;;;6.59;63.18;99439.12;257296;1122;114145;-72
2021/04/14 12:54:06;;;;;;;7.70;6.20;;;;;;;6.54;62.96;99441.92;257099;1116;114242;-76
2021/04/14 12:59:14;;;;;;;9.48;6.65;;;;;;;6.51;62.27;99443.83;256052;1123;113986;-78
2021/04/14 13:04:48;;;;;;;7.95;5.55;;;;;;;6.59;62.49;99439.98;254497;1122;113974;-79
2021/04/14 13:09:54;;;;;;;7.85;5.70;;;;;;;6.70;63.11;99430.75;257594;1123;114159;-77
2021/04/14 13:14:56;;;;;;;;;;;;;;;6.78;63.19;99437.44;254892;1121;114592;-77
2021/04/14 13:20:01;;;;;;;5.73;4.25;;;;;;;6.75;62.59;99426.98;257108;1122;101407;-80
2021/04/14 13:25:32;;;;;;;6.45;4.60;;;;;;;6.73;62.75;99431.49;257391;1121;114059;-84
2021/04/14 13:31:15;;;;;;;7.18;4.30;;;;;;;6.75;62.77;99426.98;255410;1123;113977;-81
2021/04/14 13:36:25;;;;;;;7.50;4.53;;;;;;;6.78;62.80;99426.86;253356;1122;114098;-81
2021/04/14 13:41:45;;;;;;;5.80;4.40;;;;;;;6.78;62.94;99426.86;257255;1122;114005;-76
2021/04/14 13:46:56;;;;;;;9.28;6.05;;;;;;;6.76;62.28;99425.19;257236;1122;114919;-77
2021/04/14 13:52:05;;;;;;;9.45;6.00;;;;;;;6.69;62.59;99424.61;257410;1122;114176;-78
2021/04/14 13:57:17;;;;;;;8.08;4.78;;;;;;;6.71;61.95;99432.47;256409;1122;114421;-78
2021/04/14 14:02:43;;;;;;;6.45;4.85;;;;;;;6.66;62.67;99423.84;253492;1121;113940;-78
2021/04/14 14:08:12;;;;;;;5.43;4.83;;;;;;;6.62;62.22;99423.98;256874;1122;115595;-76
2021/04/14 14:13:25;;;;;;;6.13;4.43;;;;;;;6.57;62.39;99427.73;257281;1123;114898;-77
2021/04/14 14:18:28;;;;;;;5.60;4.60;;;;;;;6.52;62.21;99430.56;257514;1122;114065;-74
2021/04/14 14:23:38;;;;;;;6.23;3.75;;;;;;;6.61;62.66;99426.68;256971;1122;114238;-76
2021/04/14 14:28:41;;;;;;;6.43;4.43;;;;;;;6.68;61.94;99412.28;257160;1122;114394;-79
2021/04/14 14:33:44;;;;;;;6.98;3.80;;;;;;;6.73;62.46;99420.05;256047;1122;115161;-78
2021/04/14 14:38:57;;;;;;;7.30;3.83;;;;;;;6.70;62.03;99426.32;256653;1122;114769;-76
2021/04/14 14:44:05;;;;;;;5.90;3.65;;;;;;;6.58;61.63;99424.16;257528;1121;114185;-75
2021/04/14 14:49:29;;;;;;;6.38;3.85;;;;;;;6.53;61.99;99429.63;257013;1122;114509;-77
2021/04/14 14:54:34;;;;;;;6.57;4.03;;;;;;;6.48;62.35;99431.58;256112;1122;114668;-77
2021/04/14 14:59:41;;;;;;;7.85;4.90;;;;;;;6.45;62.55;99442.27;257052;1122;114744;-73
2021/04/14 15:04:44;;;;;;;4.63;3.35;;;;;;;6.35;62.70;99436.50;257323;1121;114785;-78
2021/04/14 15:09:50;;;;;;;4.45;3.28;;;;;;;6.25;62.67;99450.98;255722;1122;113749;-80
2021/04/14 15:14:53;;;;;;;5.30;3.80;;;;;;;6.17;62.37;99445.11;257397;1122;113765;-79
2021/04/14 15:19:56;;;;;;;6.85;4.10;;;;;;;6.14;63.03;99443.44;257236;1123;115106;-81
2021/04/14 15:25:12;;;;;;;6.23;4.30;;;;;;;6.13;62.79;99446.16;257167;1121;114534;-83
2021/04/14 15:30:33;;;;;;;5.98;3.60;;;;;;;6.20;62.65;99439.71;257365;1122;114798;-81
2021/04/14 15:35:35;;;;;;;5.38;3.65;;;;;;;6.30;62.82;99445.52;257143;1123;114905;-81
2021/04/14 15:40:38;;;;;;;5.60;4.05;;;;;;;6.35;63.18;99443.55;257162;1122;114540;-80
2021/04/14 15:45:42;;;;;;;4.83;3.30;;;;;;;6.38;63.21;99433.72;257494;1122;114526;-80
2021/04/14 15:50:45;;;;;;;5.53;3.30;;;;;;;6.38;62.78;99443.43;257436;1122;114234;-79
2021/04/14 15:55:48;;;;;;;10.13;4.70;;;;;;;6.38;62.88;99446.93;257342;1121;114198;-79
2021/04/14 16:00:53;;;;;;;10.33;4.53;;;;;;;6.33;62.21;99438.33;257593;1121;114428;-80
2021/04/14 16:05:56;;;;;;;10.95;5.20;;;;;;;6.28;63.06;99426.20;257302;1122;114571;-81
2021/04/14 16:11:00;;;;;;;10.05;3.73;;;;;;;6.24;62.79;99436.03;257336;1122;114387;-81
2021/04/14 16:16:04;;;;;;;6.38;3.88;;;;;;;6.19;62.84;99434.50;257203;1121;114430;-80
2021/04/14 16:21:07;;;;;;;7.20;4.50;;;;;;;6.13;63.04;99433.80;257182;1121;114306;-80
2021/04/14 16:26:11;;;;;;;5.55;2.88;;;;;;;6.15;62.37;99433.76;257194;1121;114902;-81
2021/04/14 16:31:14;;;;;;;8.33;4.35;;;;;;;6.11;63.00;99433.02;257137;1120;114541;-80
2021/04/14 16:36:18;;;;;;;7.00;3.95;;;;;;;6.10;63.21;99440.98;257138;1121;114170;-79
2021/04/14 16:41:22;;;;;;;6.50;4.30;;;;;;;6.05;61.99;99438.52;257230;1123;114386;-73
2021/04/14 16:46:25;;;;;;;11.25;5.43;;;;;;;6.04;62.78;99442.05;257221;1122;114008;-77
2021/04/14 16:51:28;;;;;;;9.45;4.20;;;;;;;6.07;62.24;99439.30;257422;1121;114320;-73
2021/04/14 16:56:31;;;;;;;7.45;3.95;;;;;;;6.10;62.25;99436.55;257078;1122;115079;-74
2021/04/14 17:01:35;;;;;;;8.53;4.35;;;;;;;6.13;62.81;99436.44;257274;1123;114556;-73
2021/04/14 17:06:38;;;;;;;6.25;3.38;;;;;;;6.12;62.36;99432.09;257167;1121;114732;-73
2021/04/14 17:11:41;;;;;;;8.63;3.78;;;;;;;6.06;62.32;99437.59;257389;1122;114487;-74
2021/04/14 17:16:49;;;;;;;10.10;4.15;;;;;;;6.01;62.42;99441.31;257409;1122;114209;-79
2021/04/14 17:21:52;;;;;;;9.55;4.78;;;;;;;5.91;62.79;99431.08;257074;1122;114624;-79
2021/04/14 17:26:56;;;;;;;9.40;4.55;;;;;;;5.88;62.90;99433.83;257096;1121;114165;-81
2021/04/14 17:31:59;;;;;;;9.38;4.95;;;;;;;5.86;62.19;99438.28;255526;1122;115041;-79
2021/04/14 17:37:02;;;;;;;10.10;6.18;;;;;;;5.79;62.92;99434.15;257336;1122;114100;-79
2021/04/14 17:42:06;;;;;;;8.05;5.98;;;;;;;5.76;62.57;99441.32;257367;1121;114695;-79
2021/04/14 17:47:09;;;;;;;11.33;7.30;;;;;;;5.70;63.06;99439.75;257043;1122;114419;-79
2021/04/14 17:52:14;;;;;;;13.48;8.15;;;;;;;5.68;62.60;99452.17;257268;1122;114252;-79
2021/04/14 17:57:18;;;;;;;18.08;8.93;;;;;;;5.72;62.82;99448.49;257549;1121;114352;-80
2021/04/14 18:02:22;;;;;;;17.13;8.97;;;;;;;5.74;62.82;99441.39;257211;1122;114638;-80
2021/04/14 18:07:24;;;;;;;11.95;9.10;;;;;;;5.73;62.88;99444.06;257388;1122;114437;-80
2021/04/14 18:12:27;;;;;;;13.85;9.00;;;;;;;5.70;63.12;99437.11;257565;1121;114251;-79
2021/04/14 18:17:30;;;;;;;14.45;8.83;;;;;;;5.74;62.73;99444.03;257070;1123;114370;-79
2021/04/14 18:22:33;;;;;;;13.55;8.75;;;;;;;5.72;62.76;99442.35;257148;1122;114271;-82
2021/04/14 18:27:37;;;;;;;11.85;7.78;;;;;;;5.67;63.09;99440.75;257452;1123;114057;-83
2021/04/14 18:32:40;;;;;;;12.40;7.63;;;;;;;5.63;62.54;99440.89;257298;1122;114238;-79
2021/04/14 18:37:42;;;;;;;18.20;10.53;;;;;;;5.58;63.13;99442.84;257288;1122;114547;-81
2021/04/14 18:42:45;;;;;;;11.95;7.95;;;;;;;5.54;63.16;99444.73;257376;1123;114462;-78
2021/04/14 18:47:50;;;;;;;13.98;9.18;;;;;;;5.51;62.57;99449.26;257570;1122;113847;-75
2021/04/14 18:52:54;;;;;;;11.10;7.63;;;;;;;5.49;62.67;99448.44;257199;1121;114743;-74
2021/04/14 18:57:59;;;;;;;13.95;9.55;;;;;;;5.45;63.21;99445.05;257326;1123;114681;-71
2021/04/14 19:03:03;;;;;;;16.33;8.63;;;;;;;5.49;63.12;99445.80;257149;1122;114138;-72
2021/04/14 19:08:08;;;;;;;14.60;8.78;;;;;;;5.51;63.26;99442.20;257501;1122;114395;-71
2021/04/14 19:13:11;;;;;;;15.53;9.35;;;;;;;5.57;62.83;99446.38;256860;1122;115013;-73
2021/04/14 19:18:14;;;;;;;14.23;8.90;;;;;;;5.61;63.41;99437.46;257201;1122;114780;-71
2021/04/14 19:23:17;;;;;;;16.75;8.45;;;;;;;5.64;62.80;99437.36;257249;1123;114522;-71
2021/04/14 19:28:25;;;;;;;10.18;6.40;;;;;;;5.65;62.50;99442.56;257493;1121;114322;-70
2021/04/14 19:33:29;;;;;;;9.70;6.25;;;;;;;5.60;62.45;99439.21;257233;1121;114500;-71
2021/04/14 19:38:32;;;;;;;8.80;6.00;;;;;;;5.55;62.68;99438.53;257534;1122;114305;-74
2021/04/14 19:43:35;;;;;;;9.45;6.18;;;;;;;5.56;63.11;99434.11;257599;1121;114186;-72
2021/04/14 19:48:38;;;;;;;7.63;5.55;;;;;;;5.56;62.70;99437.60;257427;1122;113916;-79
2021/04/14 19:58:29;;;;;;;7.70;4.73;;;;;;;5.52;62.69;99438.63;252159;1113;103086;-72
2021/04/14 20:03:33;;;;;;;6.98;5.48;;;;;;;5.46;62.45;99438.84;258450;1114;113552;-70
2021/04/14 20:08:36;;;;;;;8.28;5.30;;;;;;;5.42;63.03;99431.95;258626;1115;114110;-70
2021/04/14 20:13:44;;;;;;;8.75;5.50;;;;;;;5.35;62.53;99435.72;258585;1116;113902;-71
2021/04/14 20:18:46;;;;;;;10.20;5.70;;;;;;;5.41;63.32;99439.02;258590;1115;113587;-71
2021/04/14 20:23:53;;;;;;;11.30;7.50;;;;;;;5.46;62.88;99437.05;258751;1114;114389;-69
2021/04/14 20:28:57;;;;;;;10.03;7.25;;;;;;;5.43;63.08;99431.91;258740;1115;114597;-71
2021/04/14 20:34:03;;;;;;;9.90;7.10;;;;;;;5.43;63.30;99429.27;258757;1115;114340;-72
2021/04/14 20:39:20;;;;;;;11.88;7.45;;;;;;;5.42;63.35;99429.31;258439;1116;113981;-71
2021/04/14 20:44:23;;;;;;;12.30;7.88;;;;;;;5.40;62.96;99434.66;258624;1116;113968;-71
2021/04/14 20:49:30;;;;;;;14.38;8.23;;;;;;;5.38;63.03;99418.00;258343;1115;114282;-71
2021/04/14 20:54:33;;;;;;;13.08;7.85;;;;;;;5.40;63.15;99421.46;258294;1116;114523;-69
2021/04/14 20:59:51;;;;;;;14.43;8.75;;;;;;;5.37;63.20;99418.92;258324;1116;115100;-72
2021/04/14 21:04:54;;;;;;;12.78;8.23;;;;;;;5.30;63.22;99414.78;258352;1115;114643;-68
2021/04/14 21:09:57;;;;;;;12.33;7.28;;;;;;;5.21;63.12;99418.58;258305;1116;114871;-67
2021/04/14 21:15:05;;;;;;;11.25;6.65;;;;;;;5.20;63.44;99408.95;258387;1115;114650;-69
2021/04/14 21:20:16;;;;;;;10.30;7.00;;;;;;;5.26;64.06;99413.13;258312;1116;114834;-70
2021/04/14 21:25:21;;;;;;;10.18;6.80;;;;;;;5.26;63.93;99405.22;258346;1115;114463;-69
2021/04/14 21:30:29;;;;;;;10.93;7.48;;;;;;;5.25;63.70;99405.28;258435;1115;114371;-79
2021/04/14 21:35:35;;;;;;;10.23;6.93;;;;;;;5.22;64.05;99398.33;258284;1108;114679;-79
2021/04/14 21:40:38;;;;;;;10.78;6.60;;;;;;;5.22;64.10;99401.83;258280;1117;114429;-79
2021/04/14 21:45:41;;;;;;;10.03;6.95;;;;;;;5.17;63.66;99406.41;258305;1115;114548;-79
2021/04/14 21:50:44;;;;;;;10.80;7.00;;;;;;;5.04;63.56;99405.10;258106;1117;114121;-79
2021/04/14 21:55:47;;;;;;;13.10;7.85;;;;;;;5.01;64.19;99401.70;258301;1116;115072;-79
2021/04/14 22:00:52;;;;;;;12.35;8.05;;;;;;;4.95;63.98;99398.34;258322;1116;114649;-79
2021/04/14 22:05:56;;;;;;;14.05;7.10;;;;;;;4.97;64.19;99393.04;258438;1116;114388;-79
2021/04/14 22:10:59;;;;;;;10.73;7.58;;;;;;;5.00;64.51;99394.72;258302;1116;114449;-80
2021/04/14 22:16:02;;;;;;;8.95;6.85;;;;;;;5.06;64.20;99378.66;258396;1116;114535;-78
2021/04/14 22:21:05;;;;;;;9.68;6.48;;;;;;;5.01;64.75;99384.10;258390;1116;114158;-73
2021/04/14 22:26:12;;;;;;;9.98;6.38;;;;;;;5.00;64.87;99387.66;258310;1116;114117;-72
2021/04/14 22:31:18;;;;;;;7.60;5.33;;;;;;;4.95;64.57;99379.03;258422;1116;114325;-72
2021/04/14 22:36:21;;;;;;;6.75;4.53;;;;;;;4.93;64.52;99375.59;258206;1114;115447;-70
2021/04/14 22:41:26;;;;;;;7.25;4.80;;;;;;;4.87;64.81;99379.30;258410;1115;114160;-73
2021/04/14 22:46:29;;;;;;;7.20;4.68;;;;;;;4.82;64.83;99375.93;258464;1116;113998;-72
2021/04/14 22:51:32;;;;;;;6.53;4.65;;;;;;;4.82;64.70;99372.44;258238;1116;114346;-73
2021/04/14 22:56:36;;;;;;;5.33;3.90;;;;;;;4.85;65.10;99370.56;258320;1114;114036;-73
2021/04/14 23:01:38;;;;;;;5.78;4.08;;;;;;;4.90;64.95;99367.79;258359;1116;114308;-73
2021/04/14 23:06:41;;;;;;;6.73;4.33;;;;;;;4.88;64.59;99364.33;258295;1114;114369;-74
2021/04/14 23:11:44;;;;;;;5.40;4.03;;;;;;;4.89;64.79;99363.41;258361;1116;114151;-74
2021/04/14 23:16:47;;;;;;;7.58;6.33;;;;;;;4.86;64.74;99358.27;258279;1116;114407;-73
2021/04/14 23:21:50;;;;;;;4.88;3.45;;;;;;;4.86;64.86;99361.76;258337;1115;114251;-73
2021/04/14 23:26:52;;;;;;;6.75;3.60;;;;;;;4.84;65.01;99357.44;258264;1116;113908;-73
2021/04/14 23:31:55;;;;;;;5.25;3.53;;;;;;;4.75;64.85;99358.59;258348;1116;113862;-73
2021/04/14 23:36:58;;;;;;;5.25;3.58;;;;;;;4.70;64.60;99347.36;257541;1116;114345;-72
2021/04/14 23:42:01;;;;;;;6.50;3.40;;;;;;;4.70;64.77;99348.22;258404;1115;114275;-74
2021/04/14 23:47:04;;;;;;;4.35;3.10;;;;;;;4.72;64.86;99345.52;258396;1116;114339;-71
2021/04/14 23:52:07;;;;;;;6.55;3.50;;;;;;;4.78;65.20;99344.45;258388;1116;114270;-71
2021/04/14 23:57:10;;;;;;;5.00;3.48;;;;;;;4.77;65.03;99335.69;258493;1114;114401;-74
